Time;durP1;ratioP1;P1;durP2;ratioP2;P2;SDS_P1;SDS_P2;PMS_P1;PMS_P2;Temp;Humidity;BMP_temperature;BMP_pressure;BME280_temperature;BME280_humidity;BME280_pressure;Samples;Min_cycle;Max_cycle;Signal;HPM_P1;HPM_P2
2024/02/27 00:02:13;;;;;;;1.63;1.10;;;17.70;57.80;;;;;;5096861;28;20854;-80
2024/02/27 00:04:41;;;;;;;1.60;1.10;;;17.70;57.80;;;;;;5096905;28;20464;-79
2024/02/27 00:07:08;;;;;;;1.50;1.00;;;17.70;57.80;;;;;;5096919;28;20438;-79
2024/02/27 00:09:35;;;;;;;1.60;1.10;;;17.70;57.80;;;;;;5096988;28;20439;-79
2024/02/27 00:12:02;;;;;;;2.13;1.73;;;17.70;57.80;;;;;;5097090;28;20824;-79
2024/02/27 00:14:29;;;;;;;1.80;1.50;;;17.70;57.80;;;;;;5096580;28;20435;-81
2024/02/27 00:16:57;;;;;;;2.27;1.30;;;17.70;57.80;;;;;;5096892;28;20522;-80
2024/02/27 00:19:24;;;;;;;1.60;1.17;;;17.70;57.80;;;;;;5096605;28;20518;-81
2024/02/27 00:21:51;;;;;;;1.70;1.20;;;17.70;57.80;;;;;;5096456;28;20439;-80
2024/02/27 00:24:18;;;;;;;1.90;1.40;;;17.70;58.40;;;;;;5096383;28;20444;-80
2024/02/27 00:26:44;;;;;;;1.90;1.20;;;17.70;57.80;;;;;;5096446;28;20433;-80
2024/02/27 00:29:11;;;;;;;1.70;1.00;;;17.70;57.80;;;;;;5096460;28;20866;-80
2024/02/27 00:31:38;;;;;;;1.80;1.20;;;17.70;57.80;;;;;;5096160;28;20467;-90
2024/02/27 00:34:06;;;;;;;1.80;1.27;;;17.70;57.80;;;;;;5096246;28;20446;-81
2024/02/27 00:36:33;;;;;;;2.33;1.40;;;17.70;57.80;;;;;;5096347;28;20444;-80
2024/02/27 00:39:00;;;;;;;1.70;1.20;;;17.70;57.80;;;;;;5096078;28;20471;-80
2024/02/27 00:41:26;;;;;;;2.03;1.60;;;17.70;57.80;;;;;;5096130;28;20997;-80
2024/02/27 00:43:53;;;;;;;2.03;1.40;;;17.70;57.80;;;;;;5096224;28;20530;-80
2024/02/27 00:46:20;;;;;;;1.70;1.20;;;17.70;57.80;;;;;;5096240;28;20993;-80
2024/02/27 00:48:47;;;;;;;1.70;1.20;;;17.70;57.80;;;;;;5096016;28;20442;-81
2024/02/27 00:51:15;;;;;;;2.73;1.33;;;17.70;57.80;;;;;;5096174;28;20435;-81
2024/02/27 00:53:42;;;;;;;2.00;1.50;;;17.70;57.80;;;;;;5095972;28;20516;-81
2024/02/27 00:56:09;;;;;;;1.70;1.17;;;17.70;57.80;;;;;;5095977;28;20438;-80
2024/02/27 00:58:36;;;;;;;1.87;1.10;;;17.70;57.80;;;;;;5095820;28;20438;-80
2024/02/27 01:01:03;;;;;;;1.70;1.30;;;17.70;57.80;;;;;;5095756;28;20455;-80
2024/02/27 01:03:30;;;;;;;1.70;1.20;;;17.70;57.80;;;;;;5096017;28;20432;-90
2024/02/27 01:05:57;;;;;;;1.50;0.97;;;17.70;57.80;;;;;;5095867;28;20489;-80
2024/02/27 01:08:25;;;;;;;1.97;1.40;;;17.70;57.80;;;;;;5095734;28;20922;-80
2024/02/27 01:10:52;;;;;;;2.00;1.13;;;17.70;57.80;;;;;;5095839;28;20522;-80
2024/02/27 01:13:19;;;;;;;1.83;1.20;;;17.70;57.80;;;;;;5095704;28;20467;-81
2024/02/27 01:15:46;;;;;;;1.80;1.30;;;17.70;57.80;;;;;;5095665;28;20945;-80
2024/02/27 01:18:12;;;;;;;1.60;1.20;;;17.70;57.80;;;;;;5095575;28;20522;-80
2024/02/27 01:20:39;;;;;;;1.80;1.10;;;17.70;57.80;;;;;;5095462;28;20951;-80
2024/02/27 01:23:06;;;;;;;1.80;1.40;;;17.60;57.70;;;;;;5095620;28;20431;-80
2024/02/27 01:25:34;;;;;;;1.90;1.50;;;17.70;57.80;;;;;;5095235;28;20899;-80
2024/02/27 01:28:02;;;;;;;1.60;1.10;;;17.60;57.70;;;;;;5095299;28;20446;-81
2024/02/27 01:30:28;;;;;;;2.00;1.57;;;17.60;57.70;;;;;;5094938;28;20483;-81
2024/02/27 01:32:55;;;;;;;1.80;1.40;;;17.60;57.70;;;;;;5095236;28;20922;-86
2024/02/27 01:35:22;;;;;;;1.90;1.30;;;17.60;57.70;;;;;;5095257;28;20440;-90
2024/02/27 01:37:49;;;;;;;1.60;1.10;;;17.60;57.70;;;;;;5095155;28;20841;-80
2024/02/27 01:40:16;;;;;;;1.93;1.37;;;17.60;57.70;;;;;;5095016;28;20522;-80
2024/02/27 01:42:45;;;;;;;1.97;1.50;;;17.70;57.80;;;;;;5095378;28;20518;-80
2024/02/27 01:45:18;;;;;;;2.07;1.40;;;17.70;57.80;;;;;;5095230;28;20483;-80
2024/02/27 01:47:46;;;;;;;2.17;1.40;;;17.60;57.70;;;;;;5095031;28;20828;-80
2024/02/27 01:50:14;;;;;;;2.13;1.40;;;17.60;57.70;;;;;;5095214;28;20821;-90
2024/02/27 01:52:41;;;;;;;1.80;1.10;;;17.60;57.70;;;;;;5094981;28;20439;-80
2024/02/27 01:55:09;;;;;;;1.80;1.47;;;17.60;57.70;;;;;;5095024;28;20423;-91
2024/02/27 01:57:36;;;;;;;2.10;1.50;;;17.60;57.70;;;;;;5094267;28;20509;-80
2024/02/27 02:00:09;;;;;;;2.00;1.40;;;17.60;57.70;;;;;;5094647;28;20458;-80
2024/02/27 02:02:36;;;;;;;1.93;1.50;;;17.60;57.70;;;;;;5094908;28;20436;-80
2024/02/27 02:05:03;;;;;;;1.80;1.23;;;17.60;57.70;;;;;;5105173;28;20461;-80
2024/02/27 02:07:30;;;;;;;1.70;1.27;;;17.60;57.70;;;;;;5108373;28;20453;-81
2024/02/27 02:09:58;;;;;;;1.90;1.50;;;17.60;57.70;;;;;;5098987;28;20454;-90
2024/02/27 02:12:25;;;;;;;1.70;1.27;;;17.60;57.70;;;;;;5094588;28;21009;-80
2024/02/27 02:14:52;;;;;;;1.67;1.23;;;17.60;57.70;;;;;;5094535;28;20448;-80
2024/02/27 02:17:27;;;;;;;1.80;1.30;;;17.60;57.70;;;;;;5094614;28;20444;-80
2024/02/27 02:19:53;;;;;;;1.70;1.30;;;17.60;57.70;;;;;;5094064;28;20893;-81
2024/02/27 02:22:21;;;;;;;1.60;1.00;;;17.60;57.70;;;;;;5094446;28;20526;-81
2024/02/27 02:24:48;;;;;;;1.90;1.43;;;17.60;57.70;;;;;;5094345;28;20522;-80
2024/02/27 02:27:19;;;;;;;2.13;1.30;;;17.60;57.70;;;;;;5094269;28;20844;-80
2024/02/27 02:29:45;;;;;;;1.90;1.30;;;17.60;57.70;;;;;;5093793;28;20460;-80
2024/02/27 02:32:12;;;;;;;1.70;1.10;;;17.60;57.70;;;;;;5093999;28;20526;-80
2024/02/27 02:34:39;;;;;;;1.60;1.00;;;17.60;57.70;;;;;;5093881;28;20466;-79
2024/02/27 02:37:06;;;;;;;1.83;1.20;;;17.60;57.70;;;;;;5094332;28;20870;-80
2024/02/27 02:39:34;;;;;;;1.50;1.10;;;17.60;57.70;;;;;;5093786;28;20431;-80
2024/02/27 02:42:01;;;;;;;1.53;1.20;;;17.60;57.70;;;;;;5094137;28;20523;-80
2024/02/27 02:44:30;;;;;;;1.80;1.37;;;17.60;57.70;;;;;;5093984;28;20428;-80
2024/02/27 02:46:57;;;;;;;1.60;1.07;;;17.60;57.70;;;;;;5093699;28;20819;-80
2024/02/27 02:49:23;;;;;;;1.70;1.37;;;17.60;57.70;;;;;;5093864;28;20440;-80
2024/02/27 02:51:50;;;;;;;1.97;1.40;;;17.60;57.70;;;;;;5093699;28;20855;-80
2024/02/27 02:54:17;;;;;;;1.60;1.20;;;17.60;57.70;;;;;;5093670;28;20432;-79
2024/02/27 02:56:45;;;;;;;1.70;1.23;;;17.60;57.70;;;;;;5093913;28;20467;-81
2024/02/27 02:59:12;;;;;;;1.50;1.00;;;17.60;57.70;;;;;;5093731;28;20435;-80
2024/02/27 03:01:39;;;;;;;2.20;1.40;;;17.60;57.70;;;;;;5093874;28;20439;-89
2024/02/27 03:04:06;;;;;;;2.03;1.33;;;17.60;57.70;;;;;;5093673;28;20438;-80
2024/02/27 03:06:33;;;;;;;1.63;1.30;;;17.60;57.70;;;;;;5093468;28;20479;-80
2024/02/27 03:08:59;;;;;;;1.80;1.10;;;17.60;57.70;;;;;;5092674;28;20438;-80
2024/02/27 03:11:26;;;;;;;1.80;1.40;;;17.60;57.70;;;;;;5093316;28;20450;-80
2024/02/27 03:13:54;;;;;;;1.60;1.00;;;17.60;57.70;;;;;;5093315;28;20457;-79
2024/02/27 03:16:21;;;;;;;1.90;1.13;;;17.60;57.70;;;;;;5093496;28;20476;-84
2024/02/27 03:18:48;;;;;;;1.90;1.33;;;17.60;57.70;;;;;;5093330;28;20436;-80
2024/02/27 03:21:15;;;;;;;1.80;1.40;;;17.60;57.70;;;;;;5093538;28;20518;-79
2024/02/27 03:23:42;;;;;;;1.97;1.40;;;17.60;57.70;;;;;;5093608;28;20435;-80
2024/02/27 03:26:08;;;;;;;1.73;1.30;;;17.60;57.70;;;;;;5093406;28;20989;-80
2024/02/27 03:28:35;;;;;;;1.60;1.20;;;17.60;57.70;;;;;;5093125;28;20522;-80
2024/02/27 03:31:04;;;;;;;1.70;1.30;;;17.50;57.60;;;;;;5095522;28;20471;-80
2024/02/27 03:33:30;;;;;;;1.63;1.20;;;17.50;57.60;;;;;;5094812;28;20522;-80
2024/02/27 03:35:57;;;;;;;1.70;1.17;;;17.50;57.60;;;;;;5096396;28;20526;-88
2024/02/27 03:38:24;;;;;;;1.87;1.50;;;17.50;57.60;;;;;;5093707;28;20435;-80
2024/02/27 03:40:51;;;;;;;1.50;1.03;;;17.60;57.70;;;;;;5093393;28;20431;-79
2024/02/27 03:43:18;;;;;;;1.80;1.37;;;17.60;57.70;;;;;;5093191;28;20531;-80
2024/02/27 03:45:44;;;;;;;1.80;1.30;;;17.50;57.60;;;;;;5093086;28;20471;-80
2024/02/27 03:48:13;;;;;;;2.30;1.60;;;17.50;57.60;;;;;;5093234;28;20439;-81
2024/02/27 03:50:39;;;;;;;2.10;1.30;;;17.50;57.60;;;;;;5093108;28;20431;-81
2024/02/27 03:53:06;;;;;;;2.00;1.27;;;17.50;57.60;;;;;;5093123;28;20442;-81
2024/02/27 03:55:33;;;;;;;1.97;1.57;;;17.50;58.20;;;;;;5093205;28;20522;-92
2024/02/27 03:58:00;;;;;;;1.60;1.20;;;17.50;57.60;;;;;;5093426;28;20522;-81
2024/02/27 04:00:27;;;;;;;1.70;1.20;;;17.50;57.60;;;;;;5093080;28;20461;-80
2024/02/27 04:02:54;;;;;;;1.80;1.40;;;17.50;57.60;;;;;;5093361;28;20463;-81
2024/02/27 04:05:23;;;;;;;1.90;1.30;;;17.50;57.60;;;;;;5093738;28;20423;-81
2024/02/27 04:07:50;;;;;;;1.60;1.20;;;17.50;57.60;;;;;;5093316;28;20505;-81
2024/02/27 04:10:17;;;;;;;1.90;1.10;;;17.50;57.60;;;;;;5093236;28;20485;-81
2024/02/27 04:12:43;;;;;;;1.90;1.47;;;17.50;57.60;;;;;;5093487;28;20435;-91
2024/02/27 04:15:10;;;;;;;1.90;1.20;;;17.50;57.60;;;;;;5093190;28;20530;-81
2024/02/27 04:17:37;;;;;;;2.27;1.50;;;17.50;57.60;;;;;;5092784;28;20442;-81
2024/02/27 04:20:05;;;;;;;1.80;1.40;;;17.50;57.60;;;;;;5093775;28;20519;-90
2024/02/27 04:22:34;;;;;;;1.93;1.57;;;17.50;57.60;;;;;;5096680;28;20435;-81
2024/02/27 04:25:00;;;;;;;2.10;1.50;;;17.50;57.60;;;;;;5096450;28;20438;-81
2024/02/27 04:27:27;;;;;;;1.60;1.20;;;17.50;57.60;;;;;;5096306;28;20487;-87
2024/02/27 04:29:54;;;;;;;1.70;1.20;;;17.50;57.60;;;;;;5096292;28;20546;-81
2024/02/27 04:32:21;;;;;;;1.60;1.10;;;17.50;57.60;;;;;;5096678;28;20926;-81
2024/02/27 04:34:48;;;;;;;1.80;1.30;;;17.50;57.60;;;;;;5096572;28;20441;-81
2024/02/27 04:37:14;;;;;;;1.60;1.13;;;17.50;57.60;;;;;;5096782;28;20442;-87
2024/02/27 04:39:46;;;;;;;1.73;1.50;;;17.50;57.60;;;;;;5096819;28;20527;-81
2024/02/27 04:42:12;;;;;;;2.27;1.47;;;17.50;57.60;;;;;;5096354;28;20534;-84
2024/02/27 04:44:39;;;;;;;3.57;2.00;;;17.50;57.60;;;;;;5097039;28;21108;-88
2024/02/27 04:47:06;;;;;;;1.80;1.27;;;17.50;57.60;;;;;;5096184;28;20483;-80
2024/02/27 04:49:33;;;;;;;2.23;1.50;;;17.50;57.60;;;;;;5096516;28;20526;-80
2024/02/27 04:52:00;;;;;;;1.70;1.43;;;17.50;57.60;;;;;;5096464;28;20530;-81
2024/02/27 04:54:27;;;;;;;1.63;1.20;;;17.50;57.60;;;;;;5096249;28;20432;-80
2024/02/27 04:56:55;;;;;;;1.60;1.10;;;17.50;57.60;;;;;;5109450;28;20508;-80
2024/02/27 04:59:22;;;;;;;1.60;1.17;;;17.50;57.60;;;;;;5109952;28;20455;-80
2024/02/27 05:01:49;;;;;;;1.70;1.20;;;17.50;57.60;;;;;;5098058;28;20514;-80
2024/02/27 05:04:16;;;;;;;1.60;1.20;;;17.50;57.60;;;;;;5095960;28;20534;-81
2024/02/27 05:06:43;;;;;;;1.90;1.60;;;17.50;57.60;;;;;;5095940;28;20566;-80
2024/02/27 05:09:10;;;;;;;1.80;1.10;;;17.50;57.60;;;;;;5095636;28;20854;-80
2024/02/27 05:11:37;;;;;;;1.60;1.30;;;17.40;57.60;;;;;;5095861;28;20431;-80
2024/02/27 05:14:05;;;;;;;1.90;1.40;;;17.50;57.60;;;;;;5095733;28;20531;-91
2024/02/27 05:16:32;;;;;;;2.00;1.20;;;17.40;57.60;;;;;;5095694;28;20522;-81
2024/02/27 05:18:59;;;;;;;2.10;1.40;;;17.50;57.70;;;;;;5095617;28;20919;-90
2024/02/27 05:21:26;;;;;;;1.70;1.20;;;17.40;57.50;;;;;;5095605;28;20787;-80
2024/02/27 05:23:54;;;;;;;1.70;1.20;;;17.40;57.60;;;;;;5095982;28;20427;-80
2024/02/27 05:26:21;;;;;;;1.87;1.20;;;17.40;57.50;;;;;;5095697;28;20543;-80
2024/02/27 05:28:48;;;;;;;1.90;1.60;;;17.40;57.50;;;;;;5095163;28;20467;-79
2024/02/27 05:31:25;;;;;;;1.70;1.30;;;17.50;57.60;;;;;;5094756;28;20982;-80
2024/02/27 05:33:52;;;;;;;1.63;1.20;;;17.50;57.60;;;;;;5095136;28;20439;-80
2024/02/27 05:36:20;;;;;;;1.70;1.30;;;17.40;57.50;;;;;;5095091;28;20864;-80
2024/02/27 05:38:47;;;;;;;2.33;1.70;;;17.40;57.60;;;;;;5095118;28;20501;-88
2024/02/27 05:41:14;;;;;;;1.80;1.30;;;17.50;57.60;;;;;;5095016;28;20522;-80
2024/02/27 05:43:41;;;;;;;1.60;1.00;;;17.40;57.60;;;;;;5095015;28;20435;-80
2024/02/27 05:46:09;;;;;;;1.87;1.33;;;17.40;57.60;;;;;;5094962;28;20440;-81
2024/02/27 05:48:38;;;;;;;1.73;1.30;;;17.50;57.60;;;;;;5095399;28;20435;-81
2024/02/27 05:51:05;;;;;;;1.73;1.23;;;17.40;57.50;;;;;;5094979;28;20514;-86
2024/02/27 05:53:33;;;;;;;1.53;1.03;;;17.40;57.60;;;;;;5095356;28;20809;-81
2024/02/27 05:56:00;;;;;;;2.10;1.30;;;17.40;57.60;;;;;;5095261;28;20438;-80
2024/02/27 05:58:27;;;;;;;1.80;1.13;;;17.40;57.60;;;;;;5095051;28;20443;-79
2024/02/27 06:00:55;;;;;;;1.70;1.37;;;17.40;57.60;;;;;;5095378;28;20463;-89
2024/02/27 06:03:23;;;;;;;1.70;1.30;;;17.40;57.60;;;;;;5095278;28;20943;-84
2024/02/27 06:05:51;;;;;;;1.60;1.20;;;17.40;57.60;;;;;;5096095;28;20436;-90
2024/02/27 06:08:18;;;;;;;1.80;1.37;;;17.40;57.50;;;;;;5094777;28;20493;-85
2024/02/27 06:10:45;;;;;;;1.80;1.40;;;17.40;57.50;;;;;;5095215;28;20526;-80
2024/02/27 06:13:12;;;;;;;1.90;1.33;;;17.50;57.60;;;;;;5094928;28;20443;-80
2024/02/27 06:15:39;;;;;;;1.70;1.40;;;17.40;57.60;;;;;;5095852;28;20531;-79
2024/02/27 06:18:13;;;;;;;1.80;1.50;;;17.40;57.60;;;;;;5096110;28;20443;-89
2024/02/27 06:23:26;;;;;;;1.70;1.40;;;17.40;57.50;;;;;;5094564;28;20418;-86
2024/02/27 06:25:54;;;;;;;1.70;1.07;;;17.40;57.60;;;;;;5094488;28;20438;-81
2024/02/27 06:28:21;;;;;;;1.60;1.30;;;17.40;57.50;;;;;;5094280;28;20490;-85
2024/02/27 06:30:47;;;;;;;2.33;1.63;;;17.40;57.50;;;;;;5093888;28;20558;-83
2024/02/27 06:33:14;;;;;;;1.70;1.40;;;17.40;57.50;;;;;;5094253;28;20523;-80
2024/02/27 06:35:41;;;;;;;1.50;1.10;;;17.40;57.50;;;;;;5094329;28;20428;-81
2024/02/27 06:38:08;;;;;;;1.83;1.47;;;17.40;57.60;;;;;;5094155;28;20442;-80
2024/02/27 06:40:36;;;;;;;2.00;1.50;;;17.40;57.60;;;;;;5094139;28;20877;-80
2024/02/27 06:43:03;;;;;;;1.60;1.10;;;17.40;57.50;;;;;;5093932;28;20431;-80
2024/02/27 06:45:32;;;;;;;2.10;1.30;;;17.40;57.50;;;;;;5093856;28;20463;-80
2024/02/27 06:47:58;;;;;;;2.10;1.40;;;17.40;57.50;;;;;;5093986;28;20532;-90
2024/02/27 06:50:25;;;;;;;1.80;1.50;;;17.40;57.60;;;;;;5093751;28;20444;-80
2024/02/27 06:52:53;;;;;;;1.80;1.33;;;17.40;57.50;;;;;;5093812;28;20435;-81
2024/02/27 06:55:20;;;;;;;2.07;1.17;;;17.40;57.50;;;;;;5093764;28;20934;-79
2024/02/27 06:57:49;;;;;;;1.77;1.43;;;17.40;57.50;;;;;;5093679;28;20523;-80
2024/02/27 07:00:16;;;;;;;1.60;1.10;;;17.40;57.50;;;;;;5093617;28;20459;-81
2024/02/27 07:02:43;;;;;;;2.17;1.60;;;17.40;57.50;;;;;;5094879;28;20531;-81
2024/02/27 07:05:10;;;;;;;1.97;1.53;;;17.40;57.50;;;;;;5096868;28;20526;-81
2024/02/27 07:07:39;;;;;;;1.60;1.10;;;17.40;57.50;;;;;;5099005;28;20544;-79
2024/02/27 07:10:07;;;;;;;1.80;1.40;;;17.40;57.50;;;;;;5095469;28;20466;-79
2024/02/27 07:12:34;;;;;;;2.00;1.47;;;17.40;57.50;;;;;;5093560;28;20535;-80
2024/02/27 07:15:02;;;;;;;1.67;1.37;;;17.40;57.50;;;;;;5093431;28;20442;-79
2024/02/27 07:17:29;;;;;;;1.80;1.37;;;17.40;57.50;;;;;;5093357;28;20467;-80
2024/02/27 07:19:57;;;;;;;1.60;1.30;;;17.40;57.60;;;;;;5093428;28;20444;-79
2024/02/27 07:22:24;;;;;;;2.60;1.43;;;17.40;57.50;;;;;;5093522;28;20443;-79
2024/02/27 07:24:52;;;;;;;1.80;1.40;;;17.40;57.60;;;;;;5093341;28;20471;-79
2024/02/27 07:27:18;;;;;;;1.80;1.40;;;17.40;57.50;;;;;;5093251;28;20482;-79
2024/02/27 07:29:45;;;;;;;1.60;1.10;;;17.40;57.50;;;;;;5093140;28;20452;-79
2024/02/27 07:32:14;;;;;;;1.70;1.17;;;17.40;57.50;;;;;;5092999;28;20934;-80
2024/02/27 07:34:42;;;;;;;1.87;1.27;;;17.40;57.50;;;;;;5093297;28;20428;-79
2024/02/27 07:37:12;;;;;;;2.10;1.40;;;17.40;58.10;;;;;;5093371;28;20439;-80
2024/02/27 07:39:39;;;;;;;2.23;1.50;;;17.40;57.50;;;;;;5093250;28;20591;-81
2024/02/27 07:42:06;;;;;;;2.00;1.57;;;17.40;57.50;;;;;;5092999;28;20435;-86
2024/02/27 07:44:33;;;;;;;1.70;1.30;;;17.40;57.50;;;;;;5093383;28;20524;-79
2024/02/27 07:46:59;;;;;;;1.83;1.33;;;17.40;57.50;;;;;;5093041;28;20926;-79
2024/02/27 07:49:28;;;;;;;1.90;1.40;;;17.40;57.50;;;;;;5103908;28;20497;-80
2024/02/27 07:51:54;;;;;;;2.00;1.60;;;17.40;57.50;;;;;;5100496;28;20510;-80
2024/02/27 07:54:22;;;;;;;1.70;1.27;;;17.40;57.50;;;;;;5092957;28;20550;-80
2024/02/27 07:56:49;;;;;;;1.60;1.20;;;17.40;57.50;;;;;;5096959;28;20431;-80
2024/02/27 07:59:16;;;;;;;1.90;1.40;;;17.40;57.50;;;;;;5097025;28;20450;-81
2024/02/27 08:01:43;;;;;;;2.57;1.40;;;17.40;57.50;;;;;;5096887;28;20427;-80
2024/02/27 08:04:10;;;;;;;2.20;1.53;;;17.40;57.50;;;;;;5096713;28;20613;-81
2024/02/27 08:06:39;;;;;;;2.23;1.40;;;17.50;57.60;;;;;;5096667;28;20526;-80
2024/02/27 08:09:06;;;;;;;1.90;1.30;;;17.40;57.50;;;;;;5096824;28;21019;-81
2024/02/27 08:11:33;;;;;;;1.87;1.40;;;17.30;57.40;;;;;;5096703;28;20435;-89
2024/02/27 08:14:01;;;;;;;1.67;1.13;;;17.30;57.40;;;;;;5096542;28;20530;-89
2024/02/27 08:16:28;;;;;;;2.00;1.40;;;17.40;57.50;;;;;;5096750;28;20434;-80
2024/02/27 08:18:55;;;;;;;1.73;1.30;;;17.40;57.50;;;;;;5096692;28;20522;-80
2024/02/27 08:21:21;;;;;;;1.97;1.37;;;17.40;57.50;;;;;;5096607;28;20930;-80
2024/02/27 08:23:50;;;;;;;1.70;1.10;;;17.40;57.50;;;;;;5096424;28;20431;-80
2024/02/27 08:26:16;;;;;;;1.63;1.20;;;17.40;57.50;;;;;;5096596;28;20786;-80
2024/02/27 08:28:43;;;;;;;2.00;1.53;;;17.40;57.50;;;;;;5096683;28;20493;-80
2024/02/27 08:31:10;;;;;;;2.10;1.20;;;17.30;57.40;;;;;;5096024;28;20471;-86
2024/02/27 08:33:38;;;;;;;2.40;1.67;;;17.30;57.40;;;;;;5096259;28;20435;-83
2024/02/27 08:36:06;;;;;;;2.37;1.50;;;17.30;57.40;;;;;;5096533;28;20436;-81
2024/02/27 08:38:32;;;;;;;2.00;1.50;;;17.40;57.50;;;;;;5096134;28;20467;-84
2024/02/27 08:41:01;;;;;;;2.10;1.50;;;17.30;57.40;;;;;;5096499;28;20432;-80
2024/02/27 08:43:28;;;;;;;1.90;1.30;;;17.40;57.50;;;;;;5096085;28;20439;-82
2024/02/27 08:45:55;;;;;;;2.20;1.73;;;17.40;57.50;;;;;;5096190;28;20826;-81
2024/02/27 08:48:21;;;;;;;1.70;1.30;;;17.40;57.50;;;;;;5096100;28;20529;-81
2024/02/27 08:50:48;;;;;;;1.70;1.20;;;17.30;57.40;;;;;;5096106;28;20856;-80
2024/02/27 08:53:15;;;;;;;1.63;1.10;;;17.30;58.00;;;;;;5096039;28;20534;-80
2024/02/27 08:55:42;;;;;;;2.03;1.33;;;17.40;57.50;;;;;;5095876;28;20538;-88
2024/02/27 08:58:10;;;;;;;1.70;1.37;;;17.40;57.50;;;;;;5095714;28;20922;-81
2024/02/27 09:00:37;;;;;;;2.27;1.53;;;17.40;57.50;;;;;;5095629;28;20449;-81
2024/02/27 09:03:05;;;;;;;2.00;1.50;;;17.40;57.50;;;;;;5095618;28;20488;-87
2024/02/27 09:05:32;;;;;;;1.80;1.33;;;17.30;57.40;;;;;;5097971;28;20435;-81
2024/02/27 09:07:59;;;;;;;2.10;1.60;;;17.40;57.50;;;;;;5097416;28;20562;-81
2024/02/27 09:10:26;;;;;;;1.90;1.40;;;17.40;57.50;;;;;;5099419;28;21017;-81
2024/02/27 09:12:55;;;;;;;1.80;1.20;;;17.40;57.50;;;;;;5099161;28;20443;-80
2024/02/27 09:15:23;;;;;;;2.63;1.73;;;17.40;57.40;;;;;;5096353;28;20435;-81
2024/02/27 09:17:50;;;;;;;1.90;1.40;;;17.40;57.40;;;;;;5095977;28;20446;-85
2024/02/27 09:20:17;;;;;;;1.80;1.47;;;17.40;57.40;;;;;;5095861;28;20435;-88
2024/02/27 09:22:44;;;;;;;1.80;1.30;;;17.40;57.40;;;;;;5095492;28;20493;-83
2024/02/27 09:25:12;;;;;;;1.80;1.30;;;17.40;57.40;;;;;;5095289;28;20538;-79
2024/02/27 09:27:38;;;;;;;2.00;1.20;;;17.40;57.40;;;;;;5095480;28;20556;-88
2024/02/27 09:30:07;;;;;;;3.60;1.50;;;17.40;57.40;;;;;;5095328;28;20475;-81
2024/02/27 09:32:35;;;;;;;1.90;1.50;;;17.40;57.40;;;;;;5095234;28;20440;-81
2024/02/27 09:35:02;;;;;;;1.80;1.40;;;17.40;57.50;;;;;;5095336;28;20442;-81
2024/02/27 09:37:29;;;;;;;1.67;1.17;;;17.40;57.40;;;;;;5095305;28;20561;-81
2024/02/27 09:39:56;;;;;;;2.00;1.43;;;17.40;57.40;;;;;;5095254;28;20527;-81
2024/02/27 09:42:24;;;;;;;2.27;1.60;;;17.40;57.40;;;;;;5095206;28;20446;-90
2024/02/27 09:44:54;;;;;;;2.00;1.33;;;17.40;57.40;;;;;;5095872;28;20538;-81
2024/02/27 09:47:22;;;;;;;1.80;1.50;;;17.40;57.40;;;;;;5095435;28;20527;-82
2024/02/27 09:49:53;;;;;;;2.20;1.37;;;17.40;58.00;;;;;;5095639;28;20474;-89
2024/02/27 09:52:21;;;;;;;2.10;1.30;;;17.40;57.40;;;;;;5095284;28;20446;-91
2024/02/27 09:54:50;;;;;;;2.13;1.50;;;17.40;57.40;;;;;;5095382;28;20522;-89
2024/02/27 09:57:17;;;;;;;1.70;1.47;;;17.40;57.40;;;;;;5095302;28;20440;-88
2024/02/27 09:59:46;;;;;;;1.80;1.40;;;17.40;57.40;;;;;;5094691;28;20482;-81
2024/02/27 10:02:14;;;;;;;1.90;1.50;;;17.30;57.30;;;;;;5094660;28;20428;-82
2024/02/27 10:04:41;;;;;;;1.80;1.40;;;17.40;57.40;;;;;;5094696;28;20431;-81
2024/02/27 10:07:10;;;;;;;2.00;1.50;;;17.40;57.40;;;;;;5094590;28;20567;-81
2024/02/27 10:09:39;;;;;;;1.83;1.43;;;17.40;57.40;;;;;;5094387;28;20479;-81
2024/02/27 10:12:07;;;;;;;2.23;1.40;;;17.40;57.40;;;;;;5094810;28;20519;-81
2024/02/27 10:14:36;;;;;;;2.10;1.70;;;17.40;57.40;;;;;;5094403;28;20570;-88
2024/02/27 10:17:04;;;;;;;1.73;1.23;;;17.40;57.40;;;;;;5094461;28;20439;-81
2024/02/27 10:19:32;;;;;;;2.30;1.67;;;17.40;57.40;;;;;;5093816;28;20431;-81
2024/02/27 10:21:59;;;;;;;2.10;1.43;;;17.40;57.40;;;;;;5094357;28;20519;-80
2024/02/27 10:24:28;;;;;;;1.70;1.30;;;17.40;57.40;;;;;;5094470;28;20526;-79
2024/02/27 10:26:55;;;;;;;2.00;1.53;;;17.40;57.40;;;;;;5094293;28;20522;-79
2024/02/27 10:29:23;;;;;;;2.00;1.30;;;17.40;57.40;;;;;;5093935;28;20570;-79
2024/02/27 10:31:51;;;;;;;1.70;1.37;;;17.40;57.40;;;;;;5094109;28;20463;-79
2024/02/27 10:34:18;;;;;;;1.87;1.60;;;17.40;57.40;;;;;;5093976;28;20435;-79
2024/02/27 10:36:45;;;;;;;2.00;1.40;;;17.40;57.40;;;;;;5094216;28;20515;-79
2024/02/27 10:39:12;;;;;;;2.20;1.63;;;17.40;57.40;;;;;;5101354;28;20863;-79
2024/02/27 10:41:41;;;;;;;2.00;1.50;;;17.40;57.40;;;;;;5101596;28;20467;-79
2024/02/27 10:44:08;;;;;;;2.20;1.77;;;17.40;57.90;;;;;;5097235;28;20519;-83
2024/02/27 10:46:36;;;;;;;1.90;1.60;;;17.40;57.40;;;;;;5093649;28;20941;-81
2024/02/27 10:49:03;;;;;;;1.70;1.30;;;17.40;57.40;;;;;;5093384;28;20566;-81
2024/02/27 10:51:30;;;;;;;1.90;1.63;;;17.40;57.40;;;;;;5093736;28;20531;-80
2024/02/27 10:53:59;;;;;;;1.70;1.40;;;17.40;57.30;;;;;;5093757;28;20454;-81
2024/02/27 10:56:26;;;;;;;1.93;1.20;;;17.40;57.40;;;;;;5093604;28;20859;-82
2024/02/27 10:58:55;;;;;;;1.70;1.30;;;17.40;57.30;;;;;;5093380;28;20471;-79
2024/02/27 11:01:23;;;;;;;1.90;1.60;;;17.40;57.30;;;;;;5094143;28;20446;-81
2024/02/27 11:03:51;;;;;;;2.40;1.60;;;17.40;57.30;;;;;;5094011;28;20522;-88
2024/02/27 11:06:22;;;;;;;3.30;1.60;;;17.40;57.40;;;;;;5093797;28;20427;-88
2024/02/27 11:08:54;;;;;;;1.97;1.30;;;17.40;57.30;;;;;;5093753;28;20483;-80
2024/02/27 11:11:22;;;;;;;1.87;1.63;;;17.40;57.30;;;;;;5093864;28;20519;-85
2024/02/27 11:13:51;;;;;;;2.17;1.60;;;17.40;57.30;;;;;;5093631;28;20437;-82
2024/02/27 11:16:22;;;;;;;1.73;1.30;;;17.40;57.30;;;;;;5093833;28;20431;-80
2024/02/27 11:18:54;;;;;;;1.67;1.47;;;17.40;57.30;;;;;;5093647;28;20795;-81
2024/02/27 11:21:22;;;;;;;1.93;1.70;;;17.40;57.20;;;;;;5093842;28;20432;-89
2024/02/27 11:23:50;;;;;;;1.67;1.20;;;17.40;57.20;;;;;;5093520;28;20431;-87
2024/02/27 11:26:18;;;;;;;3.00;1.67;;;17.40;57.20;;;;;;5093657;28;20535;-86
2024/02/27 11:28:46;;;;;;;1.97;1.57;;;17.40;57.20;;;;;;5093347;28;20598;-83
2024/02/27 11:31:13;;;;;;;1.97;1.50;;;17.50;57.30;;;;;;5096367;28;20471;-82
2024/02/27 11:33:47;;;;;;;1.60;1.30;;;17.50;57.20;;;;;;5097881;28;21029;-88
2024/02/27 11:36:15;;;;;;;2.00;1.57;;;17.50;57.20;;;;;;5097671;28;20993;-81
2024/02/27 11:38:43;;;;;;;1.90;1.30;;;17.50;57.20;;;;;;5097857;28;20439;-81
2024/02/27 11:41:15;;;;;;;1.73;1.17;;;17.50;57.20;;;;;;5097794;28;20949;-89
2024/02/27 11:43:46;;;;;;;1.80;1.40;;;17.50;57.10;;;;;;5097169;28;20449;-80
2024/02/27 11:46:35;;;;;;;2.30;1.93;;;17.50;57.10;;;;;;5097158;28;20432;-80
2024/02/27 11:49:04;;;;;;;2.13;1.70;;;17.60;57.10;;;;;;5096941;28;20483;-80
2024/02/27 11:51:33;;;;;;;2.07;1.70;;;17.50;57.00;;;;;;5097118;28;20525;-88
2024/02/27 11:54:00;;;;;;;2.20;1.70;;;17.50;57.00;;;;;;5096830;28;20435;-80
2024/02/27 11:56:27;;;;;;;2.37;1.80;;;17.50;57.00;;;;;;5097079;28;20522;-79
2024/02/27 11:58:54;;;;;;;2.63;1.73;;;17.50;57.00;;;;;;5096804;28;20534;-81
2024/02/27 12:01:23;;;;;;;2.20;1.80;;;17.50;57.10;;;;;;5097090;28;20791;-79
2024/02/27 12:03:50;;;;;;;1.80;1.60;;;17.50;57.10;;;;;;5097044;28;20435;-79
2024/02/27 12:06:18;;;;;;;2.53;2.30;;;17.50;57.10;;;;;;5096921;28;20439;-79
2024/02/27 12:08:46;;;;;;;1.87;1.40;;;17.50;57.10;;;;;;5096641;28;20828;-79
2024/02/27 12:11:14;;;;;;;1.90;1.63;;;17.50;57.10;;;;;;5096573;28;20527;-79
2024/02/27 12:13:40;;;;;;;1.70;1.47;;;17.50;57.10;;;;;;5096738;28;20526;-80
2024/02/27 12:16:08;;;;;;;1.90;1.50;;;17.50;57.00;;;;;;5096531;28;20443;-79
2024/02/27 12:18:34;;;;;;;1.90;1.40;;;17.50;57.30;;;;;;5096426;28;20442;-79
2024/02/27 12:21:01;;;;;;;1.93;1.43;;;17.50;57.30;;;;;;5096503;28;20509;-89
2024/02/27 12:23:30;;;;;;;1.83;1.50;;;17.60;57.40;;;;;;5096352;28;20846;-80
2024/02/27 12:25:58;;;;;;;1.97;1.50;;;17.60;57.40;;;;;;5096454;28;20439;-80
2024/02/27 12:28:26;;;;;;;2.10;1.47;;;17.60;57.60;;;;;;5096492;28;20441;-80
2024/02/27 12:30:53;;;;;;;1.50;1.20;;;17.60;57.50;;;;;;5096351;28;20478;-80
2024/02/27 12:33:21;;;;;;;1.83;1.40;;;17.70;57.60;;;;;;5096390;28;20431;-86
2024/02/27 12:35:48;;;;;;;1.90;1.57;;;17.70;57.50;;;;;;5096473;28;20436;-81
2024/02/27 12:38:15;;;;;;;1.60;1.30;;;17.70;57.50;;;;;;5096098;28;20446;-81
2024/02/27 12:40:43;;;;;;;1.83;1.30;;;17.80;58.20;;;;;;5096081;28;20438;-81
2024/02/27 12:43:10;;;;;;;1.77;1.47;;;17.70;57.60;;;;;;5096240;28;20478;-89
2024/02/27 12:45:37;;;;;;;1.57;1.20;;;17.80;57.80;;;;;;5096226;28;20526;-81
2024/02/27 12:48:05;;;;;;;1.70;1.37;;;17.80;57.80;;;;;;5096026;28;20794;-81
2024/02/27 12:50:32;;;;;;;1.80;1.23;;;17.80;57.90;;;;;;5095803;28;20487;-81
2024/02/27 12:52:59;;;;;;;1.67;1.20;;;17.80;57.90;;;;;;5095917;28;20449;-81